createdAt,value
2023-02-15T00:00:42.172Z,6.66
2023-02-15T00:01:42.242Z,6.79
2023-02-15T00:02:42.148Z,6.77
2023-02-15T00:03:42.161Z,6.66
2023-02-15T00:04:42.119Z,6.77
2023-02-15T00:05:42.109Z,6.72
2023-02-15T00:06:42.105Z,6.81
2023-02-15T00:07:42.084Z,6.81
2023-02-15T00:08:42.072Z,6.78
2023-02-15T00:09:42.123Z,6.82
2023-02-15T00:10:42.060Z,6.79
2023-02-15T00:11:42.553Z,6.75
2023-02-15T00:12:42.049Z,6.69
2023-02-15T00:13:42.022Z,6.75
2023-02-15T00:14:42.034Z,6.79
2023-02-15T00:15:42.030Z,6.81
2023-02-15T00:16:42.081Z,6.75
2023-02-15T00:17:41.990Z,6.77
2023-02-15T00:18:41.973Z,6.81
2023-02-15T00:19:42.022Z,6.79
2023-02-15T00:20:41.956Z,6.78
2023-02-15T00:21:42.612Z,6.81
2023-02-15T00:22:41.920Z,6.85
2023-02-15T00:23:41.989Z,6.79
2023-02-15T00:24:41.903Z,6.74
2023-02-15T00:25:42.086Z,6.78
2023-02-15T00:26:41.881Z,6.72
2023-02-15T00:27:41.877Z,6.75
2023-02-15T00:28:41.851Z,6.69
2023-02-15T00:29:41.850Z,6.72
2023-02-15T00:30:41.891Z,6.69
2023-02-15T00:31:41.832Z,6.75
2023-02-15T00:32:50.617Z,6.56
2023-02-15T00:33:41.800Z,6.66
2023-02-15T00:34:41.790Z,6.60
2023-02-15T00:35:41.805Z,6.75
2023-02-15T00:36:41.772Z,6.62
2023-02-15T00:37:41.753Z,6.70
2023-02-15T00:38:41.766Z,6.75
2023-02-15T00:39:41.732Z,6.74
2023-02-15T00:40:41.731Z,6.70
2023-02-15T00:41:41.730Z,6.75
2023-02-15T00:42:41.701Z,6.59
2023-02-15T00:43:41.684Z,6.62
2023-02-15T00:44:41.674Z,6.63
2023-02-15T00:45:41.701Z,6.56
2023-02-15T00:46:41.684Z,6.64
2023-02-15T00:47:41.641Z,6.70
2023-02-15T00:48:41.629Z,6.54
2023-02-15T00:49:41.625Z,6.64
2023-02-15T00:50:41.621Z,6.56
2023-02-15T00:51:41.652Z,6.59
2023-02-15T00:52:41.585Z,6.62
2023-02-15T00:53:41.572Z,6.56
2023-02-15T00:54:41.579Z,6.59
2023-02-15T00:55:41.553Z,6.59
2023-02-15T00:56:41.555Z,6.57
2023-02-15T00:57:41.558Z,6.56
2023-02-15T00:58:41.528Z,6.66
2023-02-15T00:59:41.510Z,6.63
2023-02-15T01:00:41.512Z,6.59
2023-02-15T01:01:41.496Z,6.57
2023-02-15T01:02:41.512Z,6.66
2023-02-15T01:03:41.500Z,6.66
2023-02-15T01:04:41.537Z,6.62
2023-02-15T01:05:41.458Z,6.62
2023-02-15T01:06:41.443Z,6.60
2023-02-15T01:07:41.462Z,6.60
2023-02-15T01:08:41.434Z,6.60
2023-02-15T01:09:41.418Z,6.62
2023-02-15T01:10:41.404Z,6.60
2023-02-15T01:11:41.408Z,6.60
2023-02-15T01:12:41.384Z,6.54
2023-02-15T01:13:41.396Z,6.62
2023-02-15T01:14:41.353Z,6.59
2023-02-15T01:15:43.718Z,6.56
2023-02-15T01:16:41.337Z,6.60
2023-02-15T01:17:41.330Z,6.63
2023-02-15T01:18:41.318Z,6.54
2023-02-15T01:19:41.323Z,6.59
2023-02-15T01:20:41.293Z,6.60
2023-02-15T01:21:41.294Z,6.62
2023-02-15T01:22:41.271Z,6.49
2023-02-15T01:23:41.273Z,6.49
2023-02-15T01:24:41.273Z,6.56
2023-02-15T01:25:41.235Z,6.52
2023-02-15T01:26:41.233Z,6.49
2023-02-15T01:27:41.214Z,6.49
2023-02-15T01:28:41.218Z,6.48
2023-02-15T01:29:41.207Z,6.38
2023-02-15T01:30:41.209Z,6.45
2023-02-15T01:31:41.331Z,6.41
2023-02-15T01:32:41.168Z,6.38
2023-02-15T01:33:41.155Z,6.51
2023-02-15T01:34:41.148Z,6.41
2023-02-15T01:35:41.147Z,6.48
2023-02-15T01:36:41.127Z,6.48
2023-02-15T01:37:41.111Z,6.51
2023-02-15T01:38:41.122Z,6.41
2023-02-15T01:39:41.102Z,6.41
2023-02-15T01:40:41.090Z,6.51
2023-02-15T01:41:41.073Z,6.46
2023-02-15T01:42:41.058Z,6.38
2023-02-15T01:43:41.049Z,6.42
2023-02-15T01:44:41.035Z,6.39
2023-02-15T01:45:41.060Z,6.49
2023-02-15T01:46:41.027Z,6.48
2023-02-15T01:47:41.003Z,6.46
2023-02-15T01:48:40.986Z,6.39
2023-02-15T01:49:40.980Z,6.44
2023-02-15T01:50:40.969Z,6.45
2023-02-15T01:51:40.952Z,6.49
2023-02-15T01:52:40.952Z,6.48
2023-02-15T01:53:40.933Z,6.36
2023-02-15T01:54:40.920Z,6.41
2023-02-15T01:55:40.957Z,6.39
2023-02-15T01:56:40.906Z,6.38
2023-02-15T01:57:40.892Z,6.45
2023-02-15T01:58:40.881Z,6.38
2023-02-15T01:59:40.873Z,6.36
2023-02-15T02:00:40.851Z,6.31
2023-02-15T02:01:40.903Z,6.38
2023-02-15T02:02:40.873Z,6.33
2023-02-15T02:03:40.825Z,6.44
2023-02-15T02:04:40.833Z,6.33
2023-02-15T02:05:40.814Z,6.33
2023-02-15T02:06:40.811Z,6.35
2023-02-15T02:07:40.781Z,6.35
2023-02-15T02:08:40.771Z,6.20
2023-02-15T02:09:40.773Z,6.31
2023-02-15T02:10:40.745Z,6.35
2023-02-15T02:11:40.796Z,6.31
2023-02-15T02:12:40.732Z,6.26
2023-02-15T02:13:40.718Z,6.24
2023-02-15T02:14:40.727Z,6.22
2023-02-15T02:15:41.663Z,6.24
2023-02-15T02:16:41.595Z,6.28
2023-02-15T02:17:40.757Z,6.30
2023-02-15T02:18:40.672Z,6.27
2023-02-15T02:19:40.659Z,6.26
2023-02-15T02:20:40.641Z,6.22
2023-02-15T02:21:40.672Z,6.26
2023-02-15T02:22:40.672Z,6.20
2023-02-15T02:23:40.619Z,6.24
2023-02-15T02:24:40.596Z,6.14
2023-02-15T02:25:40.586Z,6.28
2023-02-15T02:26:40.582Z,6.24
2023-02-15T02:27:40.601Z,6.17
2023-02-15T02:28:40.554Z,6.27
2023-02-15T02:29:40.546Z,6.14
2023-02-15T02:30:40.662Z,6.19
2023-02-15T02:31:40.687Z,6.19
2023-02-15T02:32:40.530Z,6.14
2023-02-15T02:33:40.502Z,6.20
2023-02-15T02:34:40.512Z,6.16
2023-02-15T02:35:40.480Z,6.16
2023-02-15T02:36:40.471Z,6.14
2023-02-15T02:37:40.450Z,6.12
2023-02-15T02:38:40.443Z,6.16
2023-02-15T02:39:40.450Z,6.11
2023-02-15T02:40:40.421Z,6.20
2023-02-15T02:41:40.407Z,6.12
2023-02-15T02:42:40.413Z,6.12
2023-02-15T02:43:40.438Z,6.12
2023-02-15T02:44:40.385Z,6.02
2023-02-15T02:45:40.363Z,6.08
2023-02-15T02:46:40.402Z,6.02
2023-02-15T02:47:40.345Z,6.04
2023-02-15T02:48:40.349Z,6.08
2023-02-15T02:49:40.362Z,6.07
2023-02-15T02:50:40.315Z,6.02
2023-02-15T02:51:40.306Z,6.05
2023-02-15T02:52:40.296Z,6.02
2023-02-15T02:53:40.284Z,6.07
2023-02-15T02:54:40.278Z,6.07
2023-02-15T02:55:40.268Z,6.04
2023-02-15T02:56:40.253Z,6.05
2023-02-15T02:57:40.252Z,6.02
2023-02-15T02:58:40.230Z,5.98
2023-02-15T02:59:40.251Z,5.94
2023-02-15T03:00:40.223Z,5.93
2023-02-15T03:01:40.280Z,5.98
2023-02-15T03:02:40.235Z,5.91
2023-02-15T03:03:40.166Z,5.97
2023-02-15T03:04:40.159Z,5.90
2023-02-15T03:05:40.175Z,5.93
2023-02-15T03:06:40.160Z,5.90
2023-02-15T03:07:40.126Z,5.90
2023-02-15T03:08:40.116Z,5.91
2023-02-15T03:09:40.114Z,5.84
2023-02-15T03:10:40.126Z,5.82
2023-02-15T03:11:40.102Z,5.98
2023-02-15T03:12:40.082Z,5.91
2023-02-15T03:13:40.070Z,5.94
2023-02-15T03:14:40.064Z,5.82
2023-02-15T03:15:40.066Z,5.76
2023-02-15T03:16:40.037Z,5.71
2023-02-15T03:17:40.045Z,5.72
2023-02-15T03:18:40.010Z,5.79
2023-02-15T03:19:40.024Z,5.73
2023-02-15T03:20:39.993Z,5.68
2023-02-15T03:21:40.004Z,5.71
2023-02-15T03:22:39.976Z,5.68
2023-02-15T03:23:39.971Z,5.64
2023-02-15T03:24:39.980Z,5.72
2023-02-15T03:25:39.943Z,5.68
2023-02-15T03:26:39.951Z,5.62
2023-02-15T03:27:39.955Z,5.64
2023-02-15T03:28:39.922Z,5.71
2023-02-15T03:29:39.899Z,5.66
2023-02-15T03:30:39.923Z,5.66
2023-02-15T03:31:40.026Z,5.64
2023-02-15T03:32:39.864Z,5.64
2023-02-15T03:33:39.853Z,5.62
2023-02-15T03:34:39.841Z,5.61
2023-02-15T03:35:39.835Z,5.59
2023-02-15T03:36:39.838Z,5.54
2023-02-15T03:37:39.806Z,5.61
2023-02-15T03:38:39.832Z,5.54
2023-02-15T03:39:39.799Z,5.59
2023-02-15T03:40:39.785Z,5.61
2023-02-15T03:41:39.767Z,5.44
2023-02-15T03:42:39.761Z,5.54
2023-02-15T03:43:39.754Z,5.41
2023-02-15T03:44:39.752Z,5.44
2023-02-15T03:45:39.734Z,5.50
2023-02-15T03:46:39.786Z,5.44
2023-02-15T03:47:39.755Z,5.47
2023-02-15T03:48:39.725Z,5.50
2023-02-15T03:49:39.732Z,5.47
2023-02-15T03:50:39.705Z,5.43
2023-02-15T03:51:39.786Z,5.33
2023-02-15T03:52:39.659Z,5.41
2023-02-15T03:53:39.633Z,5.29
2023-02-15T03:54:39.628Z,5.26
2023-02-15T03:55:39.639Z,5.30
2023-02-15T03:56:39.626Z,5.28
2023-02-15T03:57:39.609Z,5.36
2023-02-15T03:58:39.591Z,5.33
2023-02-15T03:59:39.572Z,5.38
2023-02-15T04:00:39.594Z,5.35
2023-02-15T04:01:39.570Z,5.35
2023-02-15T04:02:39.575Z,5.41
2023-02-15T04:03:39.551Z,5.39
2023-02-15T04:04:39.542Z,5.36
2023-02-15T04:05:39.514Z,5.39
2023-02-15T04:06:39.494Z,5.38
2023-02-15T04:07:39.487Z,5.30
2023-02-15T04:08:39.494Z,5.32
2023-02-15T04:09:39.463Z,5.33
2023-02-15T04:10:39.460Z,5.29
2023-02-15T04:11:39.446Z,5.32
2023-02-15T04:12:39.427Z,5.39
2023-02-15T04:13:39.428Z,5.30
2023-02-15T04:14:39.492Z,5.33
2023-02-15T04:15:39.458Z,5.30
2023-02-15T04:16:39.472Z,5.28
2023-02-15T04:17:39.459Z,5.25
2023-02-15T04:18:39.399Z,5.26
2023-02-15T04:19:39.386Z,5.17
2023-02-15T04:20:39.347Z,5.12
2023-02-15T04:21:39.332Z,5.11
2023-02-15T04:22:39.330Z,5.14
2023-02-15T04:23:39.303Z,5.08
2023-02-15T04:24:39.329Z,5.11
2023-02-15T04:25:39.344Z,5.20
2023-02-15T04:26:39.330Z,5.11
2023-02-15T04:27:39.316Z,5.15
2023-02-15T04:28:39.264Z,5.10
2023-02-15T04:29:39.295Z,5.14
2023-02-15T04:30:39.252Z,5.11
2023-02-15T04:31:39.372Z,5.08
2023-02-15T04:32:39.271Z,5.10
2023-02-15T04:33:39.294Z,5.10
2023-02-15T04:34:39.231Z,5.17
2023-02-15T04:35:39.224Z,5.11
2023-02-15T04:36:39.221Z,5.07
2023-02-15T04:37:39.227Z,5.07
2023-02-15T04:38:39.159Z,5.00
2023-02-15T04:39:39.176Z,5.05
2023-02-15T04:40:39.141Z,5.07
2023-02-15T04:41:39.172Z,4.97
2023-02-15T04:42:39.189Z,4.94
2023-02-15T04:43:39.135Z,4.92
2023-02-15T04:44:39.125Z,4.99
2023-02-15T04:45:39.117Z,4.80
2023-02-15T04:46:39.090Z,4.80
2023-02-15T04:47:39.155Z,4.94
2023-02-15T04:48:39.077Z,4.92
2023-02-15T04:49:39.040Z,4.97
2023-02-15T04:50:39.070Z,4.82
2023-02-15T04:51:39.046Z,4.80
2023-02-15T04:52:39.000Z,4.82
2023-02-15T04:53:39.015Z,4.78
2023-02-15T04:54:38.982Z,4.74
2023-02-15T04:55:38.975Z,4.73
2023-02-15T04:56:38.984Z,4.77
2023-02-15T04:57:38.967Z,4.86
2023-02-15T04:58:38.953Z,4.78
2023-02-15T04:59:38.922Z,4.90
2023-02-15T05:00:38.918Z,4.84
2023-02-15T05:01:38.905Z,4.84
2023-02-15T05:02:38.898Z,4.71
2023-02-15T05:03:38.877Z,4.75
2023-02-15T05:04:38.880Z,4.75
2023-02-15T05:05:38.858Z,4.80
2023-02-15T05:06:38.863Z,4.63
2023-02-15T05:07:38.890Z,4.68
2023-02-15T05:08:38.827Z,4.62
2023-02-15T05:09:38.823Z,4.68
2023-02-15T05:10:38.797Z,4.68
2023-02-15T05:11:38.788Z,4.70
2023-02-15T05:12:38.796Z,4.75
2023-02-15T05:13:38.768Z,4.62
2023-02-15T05:14:38.780Z,4.67
2023-02-15T05:15:38.755Z,4.73
2023-02-15T05:16:38.750Z,4.70
2023-02-15T05:17:38.733Z,4.71
2023-02-15T05:18:38.717Z,4.73
2023-02-15T05:19:38.701Z,4.66
2023-02-15T05:20:38.708Z,4.67
2023-02-15T05:21:38.691Z,4.59
2023-02-15T05:22:38.670Z,4.70
2023-02-15T05:23:38.669Z,4.66
2023-02-15T05:24:38.644Z,4.62
2023-02-15T05:25:38.630Z,4.63
2023-02-15T05:26:38.658Z,4.62
2023-02-15T05:27:38.613Z,4.56
2023-02-15T05:28:38.610Z,4.58
2023-02-15T05:29:38.600Z,4.45
2023-02-15T05:30:38.737Z,4.55
2023-02-15T05:31:38.903Z,4.52
2023-02-15T05:32:38.712Z,4.56
2023-02-15T05:33:38.552Z,4.53
2023-02-15T05:34:38.544Z,4.53
2023-02-15T05:35:38.542Z,4.50
2023-02-15T05:36:38.532Z,4.52
2023-02-15T05:37:38.533Z,4.56
2023-02-15T05:38:38.574Z,4.49
2023-02-15T05:39:38.509Z,4.52
2023-02-15T05:40:38.495Z,4.53
2023-02-15T05:41:38.497Z,4.50
2023-02-15T05:42:38.453Z,4.44
2023-02-15T05:43:38.448Z,4.35
2023-02-15T05:44:38.432Z,4.35
2023-02-15T05:45:38.430Z,4.44
2023-02-15T05:46:38.422Z,4.44
2023-02-15T05:47:38.414Z,4.41
2023-02-15T05:48:38.391Z,4.30
2023-02-15T05:49:38.390Z,4.34
2023-02-15T05:50:38.368Z,4.31
2023-02-15T05:51:38.372Z,4.31
2023-02-15T05:52:38.426Z,4.22
2023-02-15T05:53:38.367Z,4.17
2023-02-15T05:54:38.342Z,4.22
2023-02-15T05:55:38.337Z,4.23
2023-02-15T05:56:38.329Z,4.12
2023-02-15T05:57:38.300Z,4.14
2023-02-15T05:58:38.295Z,4.14
2023-02-15T05:59:38.415Z,4.19
2023-02-15T06:00:38.341Z,4.13
2023-02-15T06:01:38.267Z,4.17
2023-02-15T06:02:38.318Z,4.17
2023-02-15T06:03:38.268Z,4.19
2023-02-15T06:04:38.216Z,4.16
2023-02-15T06:05:38.242Z,4.06
2023-02-15T06:06:38.221Z,4.13
2023-02-15T06:07:38.223Z,4.06
2023-02-15T06:08:38.192Z,4.12
2023-02-15T06:09:38.180Z,4.02
2023-02-15T06:10:38.162Z,4.05
2023-02-15T06:11:38.167Z,3.95
2023-02-15T06:12:38.150Z,3.95
2023-02-15T06:13:39.027Z,4.06
2023-02-15T06:14:38.163Z,4.02
2023-02-15T06:15:38.131Z,3.99
2023-02-15T06:16:38.094Z,4.01
2023-02-15T06:17:38.107Z,3.98
2023-02-15T06:18:38.105Z,3.95
2023-02-15T06:19:38.085Z,3.94
2023-02-15T06:20:38.048Z,3.88
2023-02-15T06:21:38.046Z,3.88
2023-02-15T06:22:38.030Z,3.87
2023-02-15T06:23:38.037Z,3.83
2023-02-15T06:24:38.016Z,3.94
2023-02-15T06:25:39.906Z,3.84
2023-02-15T06:26:37.989Z,3.81
2023-02-15T06:27:37.992Z,3.59
2023-02-15T06:28:37.978Z,3.63
2023-02-15T06:29:37.948Z,3.41
2023-02-15T06:30:37.937Z,3.51
2023-02-15T06:31:38.047Z,3.45
2023-02-15T06:32:37.921Z,3.45
2023-02-15T06:33:46.723Z,3.55
2023-02-15T06:34:37.887Z,3.58
2023-02-15T06:35:37.878Z,3.60
2023-02-15T06:36:37.876Z,3.53
2023-02-15T06:37:37.891Z,3.56
2023-02-15T06:38:37.844Z,3.53
2023-02-15T06:39:37.866Z,3.50
2023-02-15T06:40:37.825Z,3.58
2023-02-15T06:41:37.812Z,3.60
2023-02-15T06:42:37.814Z,3.65
2023-02-15T06:43:40.032Z,3.77
2023-02-15T06:44:37.796Z,3.70
2023-02-15T06:45:37.783Z,3.77
2023-02-15T06:46:37.845Z,3.83
2023-02-15T06:47:37.745Z,3.68
2023-02-15T06:48:37.755Z,3.70
2023-02-15T06:49:37.760Z,3.59
2023-02-15T06:50:37.723Z,3.60
2023-02-15T06:51:37.716Z,3.69
2023-02-15T06:52:37.712Z,3.70
2023-02-15T06:53:37.687Z,3.77
2023-02-15T06:54:37.684Z,3.84
2023-02-15T06:55:37.667Z,3.83
2023-02-15T06:56:37.683Z,3.84
2023-02-15T06:57:37.669Z,3.87
2023-02-15T06:58:37.635Z,3.84
2023-02-15T06:59:37.646Z,3.80
2023-02-15T07:00:37.616Z,3.78
2023-02-15T07:01:37.662Z,3.76
2023-02-15T07:02:37.581Z,3.76
2023-02-15T07:03:37.583Z,3.81
2023-02-15T07:04:37.594Z,3.84
2023-02-15T07:05:37.555Z,3.74
2023-02-15T07:06:37.539Z,3.74
2023-02-15T07:07:37.548Z,3.80
2023-02-15T07:08:37.544Z,3.77
2023-02-15T07:09:37.505Z,3.74
2023-02-15T07:10:37.498Z,3.69
2023-02-15T07:11:37.480Z,3.77
2023-02-15T07:12:37.502Z,3.74
2023-02-15T07:13:37.460Z,3.78
2023-02-15T07:14:37.464Z,3.68
2023-02-15T07:15:37.552Z,3.80
2023-02-15T07:16:37.430Z,3.66
2023-02-15T07:17:37.416Z,3.68
2023-02-15T07:18:37.423Z,3.66
2023-02-15T07:19:37.436Z,3.60
2023-02-15T07:20:37.685Z,3.48
2023-02-15T07:21:37.391Z,3.45
2023-02-15T07:22:37.452Z,3.50
2023-02-15T07:23:37.368Z,3.40
2023-02-15T07:24:37.338Z,3.32
2023-02-15T07:25:37.332Z,3.44
2023-02-15T07:26:37.364Z,3.48
2023-02-15T07:27:37.304Z,3.36
2023-02-15T07:28:37.304Z,3.41
2023-02-15T07:29:37.382Z,3.41
2023-02-15T07:30:37.301Z,3.40
2023-02-15T07:31:37.284Z,3.37
2023-02-15T07:32:37.340Z,3.29
2023-02-15T07:33:37.282Z,3.44
2023-02-15T07:34:37.236Z,3.47
2023-02-15T07:35:37.215Z,3.44
2023-02-15T07:36:37.210Z,3.45
2023-02-15T07:37:37.263Z,3.48
2023-02-15T07:38:37.201Z,3.58
2023-02-15T07:39:37.205Z,3.51
2023-02-15T07:40:37.164Z,3.69
2023-02-15T07:41:37.160Z,3.77
2023-02-15T07:42:37.149Z,3.73
2023-02-15T07:43:37.160Z,3.47
2023-02-15T07:44:37.127Z,3.48
2023-02-15T07:45:37.128Z,3.45
2023-02-15T07:46:37.123Z,3.41
2023-02-15T07:47:37.114Z,3.44
2023-02-15T07:48:37.108Z,3.42
2023-02-15T07:49:37.068Z,3.41
2023-02-15T07:50:37.075Z,3.44
2023-02-15T07:51:37.060Z,3.48
2023-02-15T07:52:37.045Z,3.47
2023-02-15T07:53:37.021Z,3.41
2023-02-15T07:54:37.020Z,3.59
2023-02-15T07:55:37.000Z,3.53
2023-02-15T07:56:37.247Z,3.60
2023-02-15T07:57:36.975Z,3.51
2023-02-15T07:58:36.974Z,3.66
2023-02-15T07:59:36.963Z,3.70
2023-02-15T08:00:37.004Z,3.78
2023-02-15T08:01:36.940Z,3.87
2023-02-15T08:02:36.945Z,3.80
2023-02-15T08:03:36.989Z,3.83
2023-02-15T08:04:36.925Z,3.84
2023-02-15T08:05:36.888Z,3.88
2023-02-15T08:06:36.902Z,3.95
2023-02-15T08:07:36.878Z,3.86
2023-02-15T08:08:36.857Z,3.88
2023-02-15T08:09:36.848Z,3.83
2023-02-15T08:10:36.837Z,3.86
2023-02-15T08:11:36.828Z,3.95
2023-02-15T08:12:36.832Z,4.02
2023-02-15T08:13:36.806Z,4.14
2023-02-15T08:14:36.807Z,4.28
2023-02-15T08:15:36.819Z,4.37
2023-02-15T08:16:36.845Z,4.37
2023-02-15T08:17:36.799Z,4.42
2023-02-15T08:18:36.752Z,4.38
2023-02-15T08:19:36.798Z,4.32
2023-02-15T08:20:36.737Z,4.05
2023-02-15T08:21:36.725Z,4.05
2023-02-15T08:22:36.731Z,3.99
2023-02-15T08:23:36.767Z,3.87
2023-02-15T08:24:36.692Z,3.94
2023-02-15T08:25:36.692Z,4.02
2023-02-15T08:26:36.673Z,3.94
2023-02-15T08:27:36.665Z,3.98
2023-02-15T08:28:37.755Z,3.96
2023-02-15T08:29:36.662Z,4.01
2023-02-15T08:30:36.658Z,3.87
2023-02-15T08:31:36.815Z,3.87
2023-02-15T08:32:36.613Z,4.05
2023-02-15T08:33:36.653Z,3.99
2023-02-15T08:34:36.600Z,4.12
2023-02-15T08:35:36.616Z,4.13
2023-02-15T08:36:36.570Z,4.22
2023-02-15T08:37:36.547Z,4.24
2023-02-15T08:38:36.546Z,4.32
2023-02-15T08:39:36.529Z,4.38
2023-02-15T08:40:36.549Z,4.35
2023-02-15T08:41:36.616Z,4.41
2023-02-15T08:42:36.523Z,4.50
2023-02-15T08:43:36.542Z,4.52
2023-02-15T08:44:36.487Z,4.53
2023-02-15T08:45:36.548Z,4.45
2023-02-15T08:46:36.463Z,4.50
2023-02-15T08:47:36.441Z,4.44
2023-02-15T08:48:36.442Z,4.49
2023-02-15T08:49:36.431Z,4.44
2023-02-15T08:50:36.453Z,4.56
2023-02-15T08:51:36.478Z,4.58
2023-02-15T08:52:36.388Z,4.55
2023-02-15T08:53:36.388Z,4.58
2023-02-15T08:54:36.365Z,4.62
2023-02-15T08:55:36.371Z,4.62
2023-02-15T08:56:36.406Z,4.58
2023-02-15T08:57:36.341Z,4.58
2023-02-15T08:58:36.328Z,4.59
2023-02-15T08:59:36.320Z,4.58
2023-02-15T09:00:36.317Z,4.70
2023-02-15T09:01:36.435Z,4.59
2023-02-15T09:02:36.306Z,4.73
2023-02-15T09:03:36.276Z,4.80
2023-02-15T09:04:36.282Z,4.82
2023-02-15T09:05:36.275Z,4.93
2023-02-15T09:06:36.328Z,4.75
2023-02-15T09:07:36.279Z,4.71
2023-02-15T09:08:36.339Z,4.70
2023-02-15T09:09:36.214Z,4.77
2023-02-15T09:10:37.355Z,4.82
2023-02-15T09:11:36.477Z,4.74
2023-02-15T09:12:36.205Z,4.73
2023-02-15T09:13:36.181Z,4.75
2023-02-15T09:14:36.163Z,4.80
2023-02-15T09:15:36.146Z,4.87
2023-02-15T09:16:36.232Z,4.94
2023-02-15T09:17:36.175Z,5.02
2023-02-15T09:18:36.120Z,5.10
2023-02-15T09:19:36.136Z,4.99
2023-02-15T09:20:36.101Z,4.97
2023-02-15T09:21:36.086Z,5.08
2023-02-15T09:22:36.208Z,5.07
2023-02-15T09:23:36.107Z,5.20
2023-02-15T09:24:36.061Z,5.12
2023-02-15T09:25:36.065Z,5.17
2023-02-15T09:26:36.031Z,5.20
2023-02-15T09:27:36.018Z,5.18
2023-02-15T09:28:36.040Z,5.25
2023-02-15T09:29:36.031Z,5.29
2023-02-15T09:30:36.079Z,5.17
2023-02-15T09:31:36.202Z,5.26
2023-02-15T09:32:35.957Z,5.20
2023-02-15T09:33:36.015Z,5.20
2023-02-15T09:34:35.938Z,5.35
2023-02-15T09:35:35.937Z,5.23
2023-02-15T09:36:35.927Z,5.32
2023-02-15T09:37:35.914Z,5.38
2023-02-15T09:38:35.900Z,5.39
2023-02-15T09:39:35.994Z,5.36
2023-02-15T09:40:35.892Z,5.38
2023-02-15T09:41:35.875Z,5.51
2023-02-15T09:42:35.861Z,5.68
2023-02-15T09:43:35.852Z,5.80
2023-02-15T09:44:35.905Z,5.93
2023-02-15T09:45:35.855Z,6.16
2023-02-15T09:46:35.814Z,6.26
2023-02-15T09:47:35.805Z,6.44
2023-02-15T09:48:35.801Z,6.39
2023-02-15T09:49:35.787Z,6.44
2023-02-15T09:50:36.818Z,6.42
2023-02-15T09:51:35.786Z,6.41
2023-02-15T09:52:35.761Z,6.19
2023-02-15T09:53:35.783Z,6.26
2023-02-15T09:54:35.725Z,6.26
2023-02-15T09:55:35.762Z,6.11
2023-02-15T09:56:35.713Z,6.17
2023-02-15T09:57:35.693Z,6.26
2023-02-15T09:58:35.684Z,6.20
2023-02-15T09:59:35.778Z,6.28
2023-02-15T10:00:35.668Z,6.27
2023-02-15T10:01:35.758Z,6.26
2023-02-15T10:02:36.559Z,6.39
2023-02-15T10:03:37.806Z,6.49
2023-02-15T10:04:37.293Z,6.51
2023-02-15T10:05:35.622Z,6.63
2023-02-15T10:06:35.634Z,6.54
2023-02-15T10:07:36.721Z,6.60
2023-02-15T10:08:35.578Z,6.57
2023-02-15T10:09:35.594Z,6.60
2023-02-15T10:10:37.748Z,6.77
2023-02-15T10:11:35.628Z,6.81
2023-02-15T10:12:36.976Z,6.99
2023-02-15T10:13:35.528Z,7.05
2023-02-15T10:14:35.570Z,7.07
2023-02-15T10:15:35.504Z,7.21
2023-02-15T10:16:35.553Z,7.28
2023-02-15T10:17:35.521Z,7.40
2023-02-15T10:18:35.548Z,7.50
2023-02-15T10:19:35.460Z,7.61
2023-02-15T10:20:35.446Z,7.70
2023-02-15T10:21:35.476Z,7.82
2023-02-15T10:22:35.446Z,7.93
2023-02-15T10:23:35.409Z,8.09
2023-02-15T10:24:40.485Z,8.08
2023-02-15T10:25:36.395Z,7.98
2023-02-15T10:26:35.388Z,8.08
2023-02-15T10:27:35.387Z,8.10
2023-02-15T10:28:35.383Z,8.13
2023-02-15T10:29:35.360Z,8.30
2023-02-15T10:30:35.519Z,8.36
2023-02-15T10:31:35.416Z,8.56
2023-02-15T10:32:35.327Z,8.73
2023-02-15T10:33:35.316Z,8.82
2023-02-15T10:34:35.321Z,9.00
2023-02-15T10:35:35.285Z,9.06
2023-02-15T10:36:35.282Z,9.22
2023-02-15T10:37:35.266Z,9.32
2023-02-15T10:38:35.283Z,9.43
2023-02-15T10:39:35.248Z,9.54
2023-02-15T10:40:35.229Z,9.54
2023-02-15T10:41:35.212Z,9.61
2023-02-15T10:42:35.208Z,9.64
2023-02-15T10:43:35.281Z,9.76
2023-02-15T10:44:35.218Z,9.80
2023-02-15T10:45:35.182Z,9.92
2023-02-15T10:46:35.231Z,9.84
2023-02-15T10:47:35.214Z,10.02
2023-02-15T10:48:35.134Z,10.13
2023-02-15T10:49:35.130Z,10.20
2023-02-15T10:50:35.234Z,10.26
2023-02-15T10:51:35.114Z,10.44
2023-02-15T10:52:35.098Z,10.46
2023-02-15T10:53:35.116Z,10.54
2023-02-15T10:54:35.078Z,10.68
2023-02-15T10:55:35.068Z,10.69
2023-02-15T10:56:35.077Z,10.75
2023-02-15T10:57:35.061Z,10.79
2023-02-15T10:58:35.052Z,10.86
2023-02-15T10:59:35.084Z,10.92
2023-02-15T11:00:35.010Z,10.87
2023-02-15T11:01:35.075Z,11.00
2023-02-15T11:02:34.982Z,10.97
2023-02-15T11:03:34.996Z,11.04
2023-02-15T11:04:35.020Z,11.08
2023-02-15T11:05:34.985Z,10.96
2023-02-15T11:06:34.960Z,10.84
2023-02-15T11:07:35.753Z,10.74
2023-02-15T11:08:35.422Z,10.69
2023-02-15T11:09:37.325Z,10.63
2023-02-15T11:10:35.059Z,10.68
2023-02-15T11:11:34.927Z,10.63
2023-02-15T11:12:34.900Z,10.59
2023-02-15T11:13:35.067Z,10.46
2023-02-15T11:14:34.901Z,10.53
2023-02-15T11:15:35.040Z,10.34
2023-02-15T11:16:34.990Z,10.34
2023-02-15T11:17:35.725Z,10.34
2023-02-15T11:18:34.834Z,10.31
2023-02-15T11:19:34.804Z,10.26
2023-02-15T11:20:34.856Z,10.25
2023-02-15T11:21:35.903Z,10.19
2023-02-15T11:22:35.868Z,10.25
2023-02-15T11:23:34.768Z,10.22
2023-02-15T11:24:34.743Z,10.19
2023-02-15T11:25:34.796Z,10.26
2023-02-15T11:26:34.754Z,10.26
2023-02-15T11:27:34.782Z,10.22
2023-02-15T11:28:34.701Z,10.26
2023-02-15T11:29:34.694Z,10.37
2023-02-15T11:30:34.705Z,10.37
2023-02-15T11:31:34.825Z,10.41
2023-02-15T11:32:37.355Z,10.42
2023-02-15T11:33:34.692Z,10.33
2023-02-15T11:34:35.364Z,10.35
2023-02-15T11:35:34.651Z,10.05
2023-02-15T11:36:34.657Z,9.82
2023-02-15T11:37:34.614Z,9.76
2023-02-15T11:38:34.601Z,9.79
2023-02-15T11:39:36.054Z,9.83
2023-02-15T11:40:34.578Z,9.83
2023-02-15T11:41:34.608Z,10.01
2023-02-15T11:42:34.546Z,10.05
2023-02-15T11:43:34.547Z,10.17
2023-02-15T11:44:34.540Z,10.19
2023-02-15T11:45:34.528Z,10.40
2023-02-15T11:46:34.657Z,10.53
2023-02-15T11:47:34.750Z,10.53
2023-02-15T11:48:34.497Z,10.57
2023-02-15T11:49:34.503Z,10.72
2023-02-15T11:50:34.461Z,10.79
2023-02-15T11:51:34.476Z,10.79
2023-02-15T11:52:34.439Z,10.82
2023-02-15T11:53:34.443Z,10.86
2023-02-15T11:54:34.431Z,11.00
2023-02-15T11:55:34.419Z,11.05
2023-02-15T11:56:34.410Z,11.15
2023-02-15T11:57:34.429Z,11.19
2023-02-15T11:58:34.367Z,11.30
2023-02-15T11:59:34.405Z,11.29
2023-02-15T12:00:34.358Z,11.23
2023-02-15T12:01:34.367Z,11.25
2023-02-15T12:02:34.445Z,11.29
2023-02-15T12:03:34.453Z,11.27
2023-02-15T12:04:34.395Z,11.26
2023-02-15T12:05:34.338Z,11.30
2023-02-15T12:06:34.294Z,11.40
2023-02-15T12:07:34.296Z,11.41
2023-02-15T12:08:34.257Z,11.44
2023-02-15T12:09:34.279Z,11.44
2023-02-15T12:10:34.302Z,11.51
2023-02-15T12:11:34.323Z,11.60
2023-02-15T12:12:34.257Z,11.48
2023-02-15T12:13:34.227Z,11.37
2023-02-15T12:14:34.200Z,11.25
2023-02-15T12:15:34.187Z,11.19
2023-02-15T12:16:34.326Z,11.35
2023-02-15T12:17:34.182Z,11.44
2023-02-15T12:18:34.177Z,11.55
2023-02-15T12:19:34.298Z,11.50
2023-02-15T12:20:34.140Z,11.48
2023-02-15T12:21:34.133Z,11.54
2023-02-15T12:22:34.132Z,11.50
2023-02-15T12:23:34.115Z,11.37
2023-02-15T12:24:34.084Z,11.36
2023-02-15T12:25:34.099Z,11.27
2023-02-15T12:26:34.108Z,11.17
2023-02-15T12:27:34.109Z,11.19
2023-02-15T12:28:34.073Z,11.07
2023-02-15T12:29:34.063Z,10.86
2023-02-15T12:30:34.089Z,10.82
2023-02-15T12:31:34.156Z,10.79
2023-02-15T12:32:34.028Z,10.75
2023-02-15T12:33:34.010Z,10.87
2023-02-15T12:34:33.990Z,10.76
2023-02-15T12:35:33.999Z,10.90
2023-02-15T12:36:33.963Z,10.93
2023-02-15T12:37:33.953Z,11.05
2023-02-15T12:38:34.001Z,11.07
2023-02-15T12:39:33.923Z,11.05
2023-02-15T12:40:33.925Z,11.14
2023-02-15T12:41:33.930Z,11.22
2023-02-15T12:42:33.917Z,11.30
2023-02-15T12:43:33.916Z,11.37
2023-02-15T12:44:33.917Z,11.37
2023-02-15T12:45:33.872Z,11.41
2023-02-15T12:46:37.942Z,11.44
2023-02-15T12:47:33.841Z,11.59
2023-02-15T12:48:33.862Z,11.65
2023-02-15T12:49:33.843Z,11.63
2023-02-15T12:50:35.183Z,11.83
2023-02-15T12:51:33.816Z,11.86
2023-02-15T12:52:33.791Z,11.72
2023-02-15T12:53:33.779Z,11.80
2023-02-15T12:54:33.820Z,11.81
2023-02-15T12:55:33.756Z,11.84
2023-02-15T12:56:33.753Z,11.94
2023-02-15T12:57:33.734Z,12.06
2023-02-15T12:58:33.820Z,12.04
2023-02-15T12:59:33.718Z,12.12
2023-02-15T13:00:33.776Z,12.18
2023-02-15T13:01:33.705Z,12.22
2023-02-15T13:02:33.683Z,12.29
2023-02-15T13:03:33.688Z,12.35
2023-02-15T13:04:33.656Z,12.37
2023-02-15T13:05:33.693Z,12.37
2023-02-15T13:06:33.650Z,12.37
2023-02-15T13:07:33.680Z,12.43
2023-02-15T13:08:33.616Z,12.46
2023-02-15T13:09:33.621Z,12.49
2023-02-15T13:10:33.617Z,12.36
2023-02-15T13:11:33.598Z,12.36
2023-02-15T13:12:33.608Z,12.37
2023-02-15T13:13:33.555Z,12.39